Time;durP1;ratioP1;P1;durP2;ratioP2;P2;SDS_P1;SDS_P2;PMS_P1;PMS_P2;Temp;Humidity;BMP_temperature;BMP_pressure;BME280_temperature;BME280_humidity;BME280_pressure;Samples;Min_cycle;Max_cycle;Signal;HPM_P1;HPM_P2
2021/03/29 00:00:52;;;;;;;56.97;29.63;;;;;;;;;;5058074;28;20052;-86
2021/03/29 00:03:18;;;;;;;63.72;31.27;;;;;;;;;;5057584;28;20064;-87
2021/03/29 00:05:44;;;;;;;62.58;30.83;;;;;;;;;;5057834;28;20025;-85
2021/03/29 00:08:10;;;;;;;60.08;30.38;;;;;;;;;;5057606;28;20021;-88
2021/03/29 00:10:37;;;;;;;59.22;29.80;;;;;;;;;;5073621;28;20111;-88
2021/03/29 00:13:03;;;;;;;56.40;29.25;;;;;;;;;;5073409;28;20025;-87
2021/03/29 00:15:31;;;;;;;59.47;28.55;;;;;;;;;;5073552;28;20078;-88
2021/03/29 00:17:59;;;;;;;56.78;28.70;;;;;;;;;;5057491;28;20154;-88
2021/03/29 00:20:29;;;;;;;52.45;25.60;;;;;;;;;;5073393;28;20028;-88
2021/03/29 00:22:57;;;;;;;45.85;24.52;;;;;;;;;;5057427;28;20079;-88
2021/03/29 00:25:23;;;;;;;50.33;23.83;;;;;;;;;;5073335;28;20028;-88
2021/03/29 00:27:50;;;;;;;48.08;25.45;;;;;;;;;;5057449;28;20021;-89
2021/03/29 00:30:18;;;;;;;49.78;26.30;;;;;;;;;;5057615;28;20017;-88
2021/03/29 00:32:45;;;;;;;47.15;24.33;;;;;;;;;;5073007;28;20431;-88
2021/03/29 00:35:17;;;;;;;51.78;24.85;;;;;;;;;;5073291;28;20029;-88
2021/03/29 00:37:45;;;;;;;48.42;26.55;;;;;;;;;;5057398;28;20025;-88
2021/03/29 00:40:12;;;;;;;49.47;24.52;;;;;;;;;;5057620;28;20039;-87
2021/03/29 00:42:39;;;;;;;48.33;25.85;;;;;;;;;;5057422;28;20025;-88
2021/03/29 00:45:07;;;;;;;55.90;25.80;;;;;;;;;;5057122;28;20044;-88
2021/03/29 00:47:33;;;;;;;51.80;26.20;;;;;;;;;;5057188;28;20384;-88
2021/03/29 00:49:59;;;;;;;59.97;28.55;;;;;;;;;;5057141;28;20285;-88
2021/03/29 00:52:26;;;;;;;58.20;29.00;;;;;;;;;;5057258;28;20021;-88
2021/03/29 00:54:52;;;;;;;59.63;28.80;;;;;;;;;;5073821;28;20028;-86
2021/03/29 00:57:18;;;;;;;65.30;31.33;;;;;;;;;;5077078;28;20020;-86
2021/03/29 00:59:45;;;;;;;66.00;32.47;;;;;;;;;;5061238;28;20021;-86
2021/03/29 01:02:11;;;;;;;80.35;37.88;;;;;;;;;;5061124;28;20027;-86
2021/03/29 01:04:37;;;;;;;73.47;38.33;;;;;;;;;;5060966;28;20029;-86
2021/03/29 01:07:03;;;;;;;92.43;46.83;;;;;;;;;;5076722;28;20021;-85
2021/03/29 01:09:30;;;;;;;73.22;35.95;;;;;;;;;;5060970;28;20029;-90
2021/03/29 01:11:58;;;;;;;67.95;33.65;;;;;;;;;;5076914;28;20068;-90
2021/03/29 01:14:28;;;;;;;72.40;34.20;;;;;;;;;;5076736;28;20056;-90
2021/03/29 01:16:59;;;;;;;70.40;33.35;;;;;;;;;;5061003;28;20350;-90
2021/03/29 01:19:47;;;;;;;76.65;35.72;;;;;;;;;;5060990;28;20029;-90
2021/03/29 01:22:14;;;;;;;77.82;35.70;;;;;;;;;;5060815;28;20031;-87
2021/03/29 01:24:43;;;;;;;69.03;35.30;;;;;;;;;;5060786;28;20049;-86
2021/03/29 01:27:09;;;;;;;81.03;37.67;;;;;;;;;;5076173;28;20029;-86
2021/03/29 01:29:36;;;;;;;107.45;53.47;;;;;;;;;;5060638;28;20029;-86
2021/03/29 01:32:05;;;;;;;96.22;49.88;;;;;;;;;;5076263;28;20078;-89
2021/03/29 01:34:33;;;;;;;89.43;47.83;;;;;;;;;;5076382;28;20048;-90
2021/03/29 01:37:00;;;;;;;77.57;40.78;;;;;;;;;;5060805;28;20028;-88
2021/03/29 01:39:28;;;;;;;71.03;35.30;;;;;;;;;;5060778;28;20036;-88
2021/03/29 01:41:55;;;;;;;70.97;33.50;;;;;;;;;;5060458;28;20297;-87
2021/03/29 01:44:21;;;;;;;65.05;30.98;;;;;;;;;;5060144;28;20056;-87
2021/03/29 01:46:47;;;;;;;69.20;32.45;;;;;;;;;;5060317;28;20103;-88
2021/03/29 01:49:14;;;;;;;73.13;33.83;;;;;;;;;;5076023;28;20411;-89
2021/03/29 01:51:40;;;;;;;96.95;44.72;;;;;;;;;;5060372;28;20079;-88
2021/03/29 01:54:06;;;;;;;113.45;54.03;;;;;;;;;;5060387;28;20029;-88
2021/03/29 01:56:33;;;;;;;107.93;51.53;;;;;;;;;;5060116;28;20048;-88
2021/03/29 01:58:59;;;;;;;94.47;44.45;;;;;;;;;;5060083;28;20025;-88
2021/03/29 02:01:25;;;;;;;83.18;40.67;;;;;;;;;;5060236;28;20021;-88
2021/03/29 02:03:51;;;;;;;75.82;39.20;;;;;;;;;;5059952;28;20446;-86
2021/03/29 02:06:18;;;;;;;72.07;37.45;;;;;;;;;;5059820;28;20024;-87
2021/03/29 02:08:45;;;;;;;69.97;34.80;;;;;;;;;;5059974;28;20041;-87
2021/03/29 02:11:12;;;;;;;65.30;32.53;;;;;;;;;;5060025;28;20017;-88
2021/03/29 02:13:39;;;;;;;59.38;30.85;;;;;;;;;;5059943;28;20029;-88
2021/03/29 02:16:07;;;;;;;70.40;34.50;;;;;;;;;;5059665;28;20033;-88
2021/03/29 02:18:37;;;;;;;57.63;31.05;;;;;;;;;;5059979;28;20032;-88
2021/03/29 02:21:08;;;;;;;59.38;31.25;;;;;;;;;;5059693;28;20032;-87
2021/03/29 02:23:34;;;;;;;57.72;29.38;;;;;;;;;;5059716;28;20320;-86
2021/03/29 02:26:01;;;;;;;53.13;28.80;;;;;;;;;;5075313;28;20041;-86
2021/03/29 02:28:27;;;;;;;59.33;29.52;;;;;;;;;;5059534;28;20035;-86
2021/03/29 02:30:54;;;;;;;53.03;29.08;;;;;;;;;;5059420;28;20478;-87
2021/03/29 02:33:20;;;;;;;50.25;28.70;;;;;;;;;;5059605;28;20103;-87
2021/03/29 02:35:47;;;;;;;47.28;26.92;;;;;;;;;;5059515;28;20023;-88
2021/03/29 02:38:14;;;;;;;58.78;29.25;;;;;;;;;;5059665;28;20029;-87
2021/03/29 02:40:41;;;;;;;59.38;28.63;;;;;;;;;;5059494;28;20120;-88
2021/03/29 02:43:08;;;;;;;58.03;28.58;;;;;;;;;;5059277;28;20029;-89
2021/03/29 02:45:36;;;;;;;54.60;26.65;;;;;;;;;;5058821;28;20367;-88
2021/03/29 02:48:14;;;;;;;52.25;27.38;;;;;;;;;;5074917;28;20021;-89
2021/03/29 02:50:41;;;;;;;54.30;27.15;;;;;;;;;;5074766;28;20025;-88
2021/03/29 02:53:09;;;;;;;58.03;28.05;;;;;;;;;;5074810;28;20056;-88
2021/03/29 02:55:35;;;;;;;55.95;27.50;;;;;;;;;;5059227;28;20050;-87
2021/03/29 02:58:02;;;;;;;55.38;27.27;;;;;;;;;;5059027;28;20025;-88
2021/03/29 03:00:29;;;;;;;49.35;25.05;;;;;;;;;;5059163;28;20017;-86
2021/03/29 03:02:56;;;;;;;49.33;24.85;;;;;;;;;;5058963;28;20021;-86
2021/03/29 03:05:25;;;;;;;46.08;23.23;;;;;;;;;;5058096;28;20033;-86
2021/03/29 03:07:52;;;;;;;50.30;24.52;;;;;;;;;;5059066;28;20032;-87
2021/03/29 03:10:18;;;;;;;46.25;23.73;;;;;;;;;;5059130;28;20033;-87
2021/03/29 03:12:45;;;;;;;48.65;22.70;;;;;;;;;;5058743;28;20028;-87
2021/03/29 03:15:16;;;;;;;45.58;22.55;;;;;;;;;;5058958;28;20025;-87
2021/03/29 03:17:42;;;;;;;43.53;21.55;;;;;;;;;;5057949;28;20108;-88
2021/03/29 03:20:09;;;;;;;41.80;22.10;;;;;;;;;;5058785;28;20085;-89
2021/03/29 03:22:36;;;;;;;49.00;23.63;;;;;;;;;;5058610;28;20420;-89
2021/03/29 03:25:03;;;;;;;40.67;22.67;;;;;;;;;;5058470;28;20323;-91
2021/03/29 03:27:30;;;;;;;47.65;23.45;;;;;;;;;;5058649;28;20100;-90
2021/03/29 03:29:56;;;;;;;48.15;24.15;;;;;;;;;;5058243;28;20029;-88
2021/03/29 03:32:22;;;;;;;45.05;23.10;;;;;;;;;;5058557;28;20017;-88
2021/03/29 03:34:48;;;;;;;46.00;22.17;;;;;;;;;;5058247;28;20032;-89
2021/03/29 03:37:16;;;;;;;42.33;21.13;;;;;;;;;;5074058;28;20163;-89
2021/03/29 03:39:44;;;;;;;49.20;23.73;;;;;;;;;;5073950;28;20087;-88
2021/03/29 03:42:10;;;;;;;47.03;22.35;;;;;;;;;;5058108;28;20037;-89
2021/03/29 03:44:37;;;;;;;47.35;21.77;;;;;;;;;;5073595;28;20087;-89
2021/03/29 03:47:06;;;;;;;45.90;22.73;;;;;;;;;;5058147;28;20024;-90
2021/03/29 03:49:33;;;;;;;55.75;25.98;;;;;;;;;;5073779;28;20029;-91
2021/03/29 03:51:59;;;;;;;61.92;28.95;;;;;;;;;;5073767;28;20017;-91
2021/03/29 03:54:26;;;;;;;76.18;33.15;;;;;;;;;;5058006;28;20028;-91
2021/03/29 03:56:53;;;;;;;78.43;35.35;;;;;;;;;;5057824;28;20661;-90
2021/03/29 03:59:19;;;;;;;92.03;38.53;;;;;;;;;;5058125;28;20415;-91
2021/03/29 04:02:04;;;;;;;111.72;43.72;;;;;;;;;;5057835;28;20029;-91
2021/03/29 04:04:31;;;;;;;110.80;44.17;;;;;;;;;;5057869;28;20108;-91
2021/03/29 04:06:57;;;;;;;102.18;40.97;;;;;;;;;;5073530;28;20028;-89
2021/03/29 04:09:34;;;;;;;92.22;39.05;;;;;;;;;;5057700;28;20355;-88
2021/03/29 04:12:05;;;;;;;83.13;36.83;;;;;;;;;;5073546;28;20071;-88
2021/03/29 04:14:31;;;;;;;82.53;36.28;;;;;;;;;;5073477;28;20035;-88
2021/03/29 04:16:57;;;;;;;74.85;36.15;;;;;;;;;;5057455;28;20021;-89
2021/03/29 04:19:23;;;;;;;83.93;37.70;;;;;;;;;;5057621;28;20324;-89
2021/03/29 04:21:49;;;;;;;88.30;43.03;;;;;;;;;;5057620;28;20020;-89
2021/03/29 04:24:15;;;;;;;93.35;44.10;;;;;;;;;;5057426;28;20319;-89
2021/03/29 04:26:42;;;;;;;95.40;43.85;;;;;;;;;;5073061;28;20040;-88
2021/03/29 04:29:08;;;;;;;85.10;41.75;;;;;;;;;;5057715;28;20105;-89
2021/03/29 04:31:34;;;;;;;91.90;43.45;;;;;;;;;;5073330;28;20063;-91
2021/03/29 04:34:00;;;;;;;93.22;42.42;;;;;;;;;;5073319;28;20350;-92
2021/03/29 04:36:26;;;;;;;90.43;41.13;;;;;;;;;;5057388;28;20027;-90
2021/03/29 04:38:53;;;;;;;82.45;39.28;;;;;;;;;;5057391;28;20040;-90
2021/03/29 04:41:19;;;;;;;91.47;41.17;;;;;;;;;;5047997;28;20025;-88
2021/03/29 04:43:45;;;;;;;88.90;42.13;;;;;;;;;;5042609;28;20142;-87
2021/03/29 04:46:11;;;;;;;86.13;41.88;;;;;;;;;;5039020;28;20041;-87
2021/03/29 04:48:37;;;;;;;122.50;57.35;;;;;;;;;;5037398;28;20056;-87
2021/03/29 04:51:03;;;;;;;177.57;85.47;;;;;;;;;;5037357;28;20048;-89
2021/03/29 04:53:29;;;;;;;145.70;66.30;;;;;;;;;;5037404;28;20323;-88
2021/03/29 04:55:55;;;;;;;531.75;192.90;;;;;;;;;;5037654;28;20025;-89
2021/03/29 04:58:22;;;;;;;296.65;108.25;;;;;;;;;;5037520;28;20029;-89
2021/03/29 05:00:48;;;;;;;208.95;84.63;;;;;;;;;;5052891;28;20053;-89
2021/03/29 05:03:14;;;;;;;199.25;81.05;;;;;;;;;;5037299;28;20080;-89
2021/03/29 05:05:40;;;;;;;168.30;70.22;;;;;;;;;;5037121;28;20025;-87
2021/03/29 05:08:06;;;;;;;164.68;70.65;;;;;;;;;;5036950;28;20413;-86
2021/03/29 05:10:34;;;;;;;159.98;69.28;;;;;;;;;;5052610;28;20037;-86
2021/03/29 05:13:00;;;;;;;150.95;66.82;;;;;;;;;;5052520;28;20034;-86
2021/03/29 05:15:26;;;;;;;145.38;71.28;;;;;;;;;;5037392;28;20307;-86
2021/03/29 05:17:52;;;;;;;153.85;72.25;;;;;;;;;;5037166;28;20320;-87
2021/03/29 05:20:18;;;;;;;123.43;61.15;;;;;;;;;;5052382;28;20424;-87
2021/03/29 05:22:44;;;;;;;118.85;57.58;;;;;;;;;;5036726;28;20033;-90
2021/03/29 05:25:11;;;;;;;114.22;59.30;;;;;;;;;;5037016;28;20056;-89
2021/03/29 05:27:37;;;;;;;127.20;61.90;;;;;;;;;;5037108;28;20044;-90
2021/03/29 05:30:04;;;;;;;116.97;61.35;;;;;;;;;;5037175;28;20021;-89
2021/03/29 05:32:30;;;;;;;119.05;60.90;;;;;;;;;;5037059;28;20027;-87
2021/03/29 05:34:58;;;;;;;105.93;52.10;;;;;;;;;;5036924;28;20025;-87
2021/03/29 05:37:24;;;;;;;89.90;46.47;;;;;;;;;;5052703;28;20035;-89
2021/03/29 05:39:52;;;;;;;86.82;46.10;;;;;;;;;;5037116;28;20038;-88
2021/03/29 05:42:19;;;;;;;79.85;43.67;;;;;;;;;;5039828;28;20049;-89
2021/03/29 05:44:45;;;;;;;73.03;38.47;;;;;;;;;;5040156;28;20045;-90
2021/03/29 05:47:12;;;;;;;70.82;36.90;;;;;;;;;;5040176;28;20022;-78
2021/03/29 05:49:38;;;;;;;74.82;39.10;;;;;;;;;;5055433;28;20301;-78
2021/03/29 05:52:04;;;;;;;95.40;46.33;;;;;;;;;;5039765;28;20014;-76
2021/03/29 05:54:31;;;;;;;113.43;54.90;;;;;;;;;;5039596;28;20034;-76
2021/03/29 05:56:57;;;;;;;121.57;58.92;;;;;;;;;;5039756;28;20401;-76
2021/03/29 05:59:41;;;;;;;137.65;66.05;;;;;;;;;;5039941;28;20079;-76
2021/03/29 06:02:08;;;;;;;141.40;68.53;;;;;;;;;;5039535;28;20026;-76
2021/03/29 06:04:43;;;;;;;133.60;62.80;;;;;;;;;;5054577;28;20029;-76
2021/03/29 06:07:16;;;;;;;124.38;59.70;;;;;;;;;;5039466;28;20071;-76
2021/03/29 06:09:43;;;;;;;103.68;49.85;;;;;;;;;;5039617;28;20056;-76
2021/03/29 06:12:10;;;;;;;106.07;52.72;;;;;;;;;;5039583;28;20075;-76
2021/03/29 06:14:37;;;;;;;89.68;44.90;;;;;;;;;;5039489;28;20033;-76
2021/03/29 06:17:07;;;;;;;80.15;43.85;;;;;;;;;;5054784;28;20056;-76
2021/03/29 06:19:37;;;;;;;70.82;37.17;;;;;;;;;;5039252;28;20037;-76
2021/03/29 06:22:22;;;;;;;65.78;34.17;;;;;;;;;;5039308;28;20032;-76
2021/03/29 06:24:55;;;;;;;44.28;24.75;;;;;;;;;;5039034;28;20032;-76
2021/03/29 06:27:22;;;;;;;37.67;22.42;;;;;;;;;;5039094;28;20053;-77
2021/03/29 06:29:49;;;;;;;46.95;28.30;;;;;;;;;;5054731;28;20022;-76
2021/03/29 06:32:19;;;;;;;48.03;26.10;;;;;;;;;;5039198;28;20403;-76
2021/03/29 06:34:46;;;;;;;58.85;32.40;;;;;;;;;;5039146;28;20030;-76
2021/03/29 06:37:12;;;;;;;73.65;33.95;;;;;;;;;;5038937;28;20022;-76
2021/03/29 06:39:39;;;;;;;78.47;37.80;;;;;;;;;;5038791;28;20060;-76
2021/03/29 06:42:05;;;;;;;82.05;40.30;;;;;;;;;;5038881;28;20025;-76
2021/03/29 06:44:32;;;;;;;84.88;40.47;;;;;;;;;;5038548;28;20042;-76
2021/03/29 06:47:04;;;;;;;83.70;38.95;;;;;;;;;;5038765;28;20320;-76
2021/03/29 06:49:56;;;;;;;77.55;32.40;;;;;;;;;;5038747;28;20062;-76
2021/03/29 06:52:23;;;;;;;63.65;27.27;;;;;;;;;;5034901;28;20458;-76
2021/03/29 06:54:50;;;;;;;61.53;26.77;;;;;;;;;;5038631;28;20028;-76
2021/03/29 06:57:36;;;;;;;50.80;22.33;;;;;;;;;;5038422;28;20029;-76
2021/03/29 07:00:02;;;;;;;44.20;21.23;;;;;;;;;;5037503;28;20036;-76
2021/03/29 07:02:36;;;;;;;43.83;20.48;;;;;;;;;;5038476;28;20416;-76
2021/03/29 07:05:02;;;;;;;36.30;17.23;;;;;;;;;;5038301;28;20032;-76
2021/03/29 07:07:29;;;;;;;26.60;13.57;;;;;;;;;;5038393;28;20018;-76
2021/03/29 07:09:57;;;;;;;25.67;12.90;;;;;;;;;;5038226;28;20112;-76
2021/03/29 07:12:24;;;;;;;26.65;12.85;;;;;;;;;;5038310;28;20026;-76
2021/03/29 07:14:51;;;;;;;25.90;13.90;;;;;;;;;;5038280;28;20021;-77
2021/03/29 07:17:19;;;;;;;25.85;12.57;;;;;;;;;;5038392;28;20029;-77
2021/03/29 07:19:46;;;;;;;25.70;13.23;;;;;;;;;;5038029;28;20026;-76
2021/03/29 07:22:14;;;;;;;26.55;13.60;;;;;;;;;;5038070;28;20033;-76
2021/03/29 07:24:40;;;;;;;21.65;10.73;;;;;;;;;;5037993;28;20036;-76
2021/03/29 07:27:06;;;;;;;26.25;11.82;;;;;;;;;;5038122;28;20018;-76
2021/03/29 07:29:34;;;;;;;24.52;12.02;;;;;;;;;;5037976;28;20025;-76
2021/03/29 07:32:01;;;;;;;20.27;11.75;;;;;;;;;;5037902;28;20030;-76
2021/03/29 07:34:50;;;;;;;21.10;11.60;;;;;;;;;;5038055;28;20067;-76
2021/03/29 07:37:35;;;;;;;26.67;12.13;;;;;;;;;;5037900;28;20316;-76
2021/03/29 07:40:04;;;;;;;20.63;11.90;;;;;;;;;;5052847;28;20041;-76
2021/03/29 07:42:30;;;;;;;20.35;10.23;;;;;;;;;;5037505;28;20088;-76
2021/03/29 07:44:56;;;;;;;15.60;8.82;;;;;;;;;;5037351;28;20061;-76
2021/03/29 07:47:41;;;;;;;26.65;14.52;;;;;;;;;;5037633;28;20057;-76
2021/03/29 07:50:08;;;;;;;17.35;10.05;;;;;;;;;;5037787;28;20017;-76
2021/03/29 07:52:35;;;;;;;18.17;9.07;;;;;;;;;;5037303;28;20022;-76
2021/03/29 07:55:04;;;;;;;20.95;9.55;;;;;;;;;;5037596;28;20032;-76
2021/03/29 07:57:46;;;;;;;12.80;7.60;;;;;;;;;;5037352;28;20026;-76
2021/03/29 08:00:26;;;;;;;15.38;7.78;;;;;;;;;;5037356;28;20320;-76
2021/03/29 08:02:55;;;;;;;14.55;7.28;;;;;;;;;;5037286;28;20359;-76
2021/03/29 08:05:40;;;;;;;12.73;6.75;;;;;;;;;;5036902;28;20018;-76
2021/03/29 08:08:32;;;;;;;13.68;6.82;;;;;;;;;;5037295;28;20021;-76
2021/03/29 08:10:58;;;;;;;14.18;6.07;;;;;;;;;;5048271;28;20025;-76
2021/03/29 08:13:36;;;;;;;16.63;6.43;;;;;;;;;;5056134;28;20311;-76
2021/03/29 08:16:02;;;;;;;13.80;6.63;;;;;;;;;;5056999;28;20047;-76
2021/03/29 08:18:28;;;;;;;12.23;6.15;;;;;;;;;;5057262;28;20021;-76
2021/03/29 08:20:54;;;;;;;17.33;6.05;;;;;;;;;;5057129;28;20024;-76
2021/03/29 08:23:34;;;;;;;12.60;5.40;;;;;;;;;;5056853;28;20028;-76
2021/03/29 08:26:14;;;;;;;13.25;5.13;;;;;;;;;;5056930;28;20033;-76
2021/03/29 08:28:59;;;;;;;9.55;5.43;;;;;;;;;;5055904;28;20074;-76
2021/03/29 08:31:57;;;;;;;8.57;4.95;;;;;;;;;;5057054;28;20412;-76
2021/03/29 08:34:23;;;;;;;26.55;13.82;;;;;;;;;;4995655;28;20425;-76
2021/03/29 08:36:49;;;;;;;16.42;6.57;;;;;;;;;;4995795;28;20384;-76
2021/03/29 08:39:16;;;;;;;9.68;5.15;;;;;;;;;;4995711;28;20039;-76
2021/03/29 08:41:43;;;;;;;10.05;4.63;;;;;;;;;;4995674;28;20038;-76
2021/03/29 08:44:10;;;;;;;9.90;4.20;;;;;;;;;;4995327;28;20046;-76
2021/03/29 08:46:37;;;;;;;10.60;4.25;;;;;;;;;;4995703;28;20033;-76
2021/03/29 08:49:08;;;;;;;8.95;4.65;;;;;;;;;;4995140;28;20097;-76
2021/03/29 08:51:34;;;;;;;11.00;6.72;;;;;;;;;;4995599;28;20112;-76
2021/03/29 08:54:04;;;;;;;10.52;4.95;;;;;;;;;;4995535;28;20030;-76
2021/03/29 08:56:40;;;;;;;12.50;5.57;;;;;;;;;;4995510;28;20038;-76
2021/03/29 08:59:06;;;;;;;9.38;5.03;;;;;;;;;;4995498;28;20030;-76
2021/03/29 09:01:32;;;;;;;9.80;5.07;;;;;;;;;;4995611;28;20388;-76
2021/03/29 09:04:02;;;;;;;14.73;7.32;;;;;;;;;;4995459;28;20058;-76
2021/03/29 09:06:31;;;;;;;17.77;8.35;;;;;;;;;;4995492;28;20027;-77
2021/03/29 09:08:58;;;;;;;12.57;5.65;;;;;;;;;;5001682;28;20113;-76
2021/03/29 09:11:24;;;;;;;12.93;5.65;;;;;;;;;;5056491;28;20028;-76
2021/03/29 09:13:54;;;;;;;10.05;4.40;;;;;;;;;;5056395;28;20040;-76
2021/03/29 09:16:26;;;;;;;9.32;3.63;;;;;;;;;;5057922;28;20101;-76
2021/03/29 09:18:52;;;;;;;8.38;4.22;;;;;;;;;;5059047;28;20288;-76
2021/03/29 09:21:25;;;;;;;7.65;3.70;;;;;;;;;;5060528;28;20071;-76
2021/03/29 09:23:51;;;;;;;9.45;3.90;;;;;;;;;;5060326;28;20100;-76
2021/03/29 09:26:25;;;;;;;17.13;3.80;;;;;;;;;;5060314;28;20021;-76
2021/03/29 09:28:53;;;;;;;8.25;3.95;;;;;;;;;;5058424;28;20075;-76
2021/03/29 09:31:23;;;;;;;14.00;5.90;;;;;;;;;;5059999;28;20025;-76
2021/03/29 09:33:50;;;;;;;13.98;6.15;;;;;;;;;;5060174;28;20036;-76
2021/03/29 09:36:18;;;;;;;12.50;5.82;;;;;;;;;;5060163;28;20025;-76
2021/03/29 09:38:46;;;;;;;10.05;4.50;;;;;;;;;;5060193;28;20116;-76
2021/03/29 09:41:19;;;;;;;13.05;5.25;;;;;;;;;;5059845;28;20033;-76
2021/03/29 09:43:46;;;;;;;9.98;4.57;;;;;;;;;;5057867;28;20041;-76
2021/03/29 09:46:12;;;;;;;12.50;5.70;;;;;;;;;;5058822;28;20304;-76
2021/03/29 09:48:38;;;;;;;12.63;4.75;;;;;;;;;;5058479;28;20419;-82
2021/03/29 09:51:20;;;;;;;14.98;5.53;;;;;;;;;;5059961;28;20044;-77
2021/03/29 09:53:47;;;;;;;8.32;4.75;;;;;;;;;;5059679;28;20021;-76
2021/03/29 09:56:13;;;;;;;12.98;4.80;;;;;;;;;;5059655;28;20343;-76
2021/03/29 09:58:47;;;;;;;12.07;5.03;;;;;;;;;;5059621;28;20066;-76
2021/03/29 10:01:17;;;;;;;9.82;4.00;;;;;;;;;;5059551;28;20103;-76
2021/03/29 10:03:57;;;;;;;10.05;4.25;;;;;;;;;;5059335;28;20033;-76
2021/03/29 10:06:24;;;;;;;9.38;3.55;;;;;;;;;;5059087;28;20096;-76
2021/03/29 10:09:03;;;;;;;6.68;3.63;;;;;;;;;;5057549;28;20045;-76
2021/03/29 10:11:56;;;;;;;8.25;3.88;;;;;;;;;;5059442;28;20415;-76
2021/03/29 10:14:30;;;;;;;10.63;4.15;;;;;;;;;;5056475;28;20308;-76
2021/03/29 10:16:56;;;;;;;9.82;4.68;;;;;;;;;;5059138;28;20029;-76
2021/03/29 10:19:29;;;;;;;8.65;4.20;;;;;;;;;;5059310;28;20025;-76
2021/03/29 10:22:03;;;;;;;8.05;4.93;;;;;;;;;;5059146;28;20028;-76
2021/03/29 10:24:33;;;;;;;13.25;4.30;;;;;;;;;;5057391;28;20029;-76
2021/03/29 10:27:01;;;;;;;13.57;4.78;;;;;;;;;;5059001;28;20063;-76
2021/03/29 10:29:36;;;;;;;10.88;4.72;;;;;;;;;;5058981;28;20307;-76
2021/03/29 10:32:05;;;;;;;14.32;4.70;;;;;;;;;;5059105;28;20047;-77
2021/03/29 10:34:31;;;;;;;10.57;4.88;;;;;;;;;;5058999;28;20423;-76
2021/03/29 10:36:57;;;;;;;11.70;5.40;;;;;;;;;;5058960;28;20033;-76
2021/03/29 10:39:23;;;;;;;10.50;4.32;;;;;;;;;;5058692;28;20124;-76
2021/03/29 10:41:49;;;;;;;8.45;4.05;;;;;;;;;;5058936;28;20289;-76
2021/03/29 10:44:15;;;;;;;13.75;7.50;;;;;;;;;;5058496;28;20048;-76
2021/03/29 10:46:42;;;;;;;8.10;3.80;;;;;;;;;;5058639;28;20395;-76
2021/03/29 10:49:09;;;;;;;10.35;4.43;;;;;;;;;;5058919;28;20105;-76
2021/03/29 10:51:35;;;;;;;11.45;4.07;;;;;;;;;;5058883;28;20028;-76
2021/03/29 10:54:01;;;;;;;12.32;4.25;;;;;;;;;;5057559;28;20029;-76
2021/03/29 10:56:27;;;;;;;10.48;5.30;;;;;;;;;;5058636;28;20036;-76
2021/03/29 10:58:53;;;;;;;7.85;3.72;;;;;;;;;;5058467;28;20029;-76
2021/03/29 11:01:20;;;;;;;15.80;3.92;;;;;;;;;;5058848;28;20025;-76
2021/03/29 11:03:46;;;;;;;12.18;4.70;;;;;;;;;;5058334;28;20033;-76
2021/03/29 11:06:12;;;;;;;15.13;4.05;;;;;;;;;;5058507;28;20025;-76
2021/03/29 11:08:38;;;;;;;9.68;4.80;;;;;;;;;;5058303;28;20104;-76
2021/03/29 11:11:04;;;;;;;12.10;4.75;;;;;;;;;;5056652;28;20435;-76
2021/03/29 11:13:30;;;;;;;8.25;4.47;;;;;;;;;;5058258;28;20098;-76
2021/03/29 11:15:57;;;;;;;11.85;5.00;;;;;;;;;;5058039;28;20017;-76
2021/03/29 11:18:23;;;;;;;9.27;4.55;;;;;;;;;;5058341;28;20051;-76
2021/03/29 11:20:49;;;;;;;9.18;4.40;;;;;;;;;;5057926;28;20013;-76
2021/03/29 11:23:15;;;;;;;9.88;4.72;;;;;;;;;;5058251;28;20025;-76
2021/03/29 11:25:41;;;;;;;12.55;4.25;;;;;;;;;;5057555;28;20029;-76
2021/03/29 11:28:08;;;;;;;15.38;6.13;;;;;;;;;;5057781;28;20495;-76
2021/03/29 11:30:34;;;;;;;10.80;6.45;;;;;;;;;;5056777;28;20056;-75
2021/03/29 11:33:00;;;;;;;23.50;11.65;;;;;;;;;;5058095;28;20025;-75
2021/03/29 11:35:26;;;;;;;19.63;8.73;;;;;;;;;;5057811;28;20063;-75
2021/03/29 11:37:52;;;;;;;8.70;4.50;;;;;;;;;;5057813;28;20071;-75
2021/03/29 11:40:19;;;;;;;11.73;3.65;;;;;;;;;;5057132;28;20048;-75
2021/03/29 11:42:45;;;;;;;13.18;3.88;;;;;;;;;;5057161;28;20100;-75
2021/03/29 11:45:11;;;;;;;7.03;3.72;;;;;;;;;;5055750;28;20511;-75
2021/03/29 11:47:39;;;;;;;7.13;3.30;;;;;;;;;;5057542;28;20028;-75
2021/03/29 11:50:10;;;;;;;8.40;3.30;;;;;;;;;;5057285;28;20021;-74
2021/03/29 11:52:36;;;;;;;7.30;2.83;;;;;;;;;;5057663;28;20071;-75
2021/03/29 11:55:02;;;;;;;6.82;3.28;;;;;;;;;;5057254;28;20094;-75
2021/03/29 11:57:28;;;;;;;6.25;3.20;;;;;;;;;;5056383;28;20036;-75
2021/03/29 11:59:54;;;;;;;7.65;2.85;;;;;;;;;;5057263;28;20025;-76
2021/03/29 12:02:29;;;;;;;8.93;3.13;;;;;;;;;;5056345;28;20144;-75
2021/03/29 12:12:42;;;;;;;9.20;3.20;;;;;;;;;;5057157;28;20063;-76
2021/03/29 12:15:10;;;;;;;9.05;3.45;;;;;;;;;;5056395;28;20026;-76
2021/03/29 12:17:38;;;;;;;9.93;4.07;;;;;;;;;;5056981;28;20029;-77
2021/03/29 12:20:04;;;;;;;9.57;3.75;;;;;;;;;;5057338;28;20060;-76
2021/03/29 12:22:30;;;;;;;7.47;3.70;;;;;;;;;;5056200;28;20029;-76
2021/03/29 12:24:57;;;;;;;9.55;3.80;;;;;;;;;;5056922;28;20044;-77
2021/03/29 12:27:24;;;;;;;9.88;3.58;;;;;;;;;;5056947;28;20025;-76
2021/03/29 12:29:50;;;;;;;8.00;3.47;;;;;;;;;;5056907;28;20100;-76
2021/03/29 12:32:17;;;;;;;12.88;3.60;;;;;;;;;;5055322;28;20029;-76
2021/03/29 12:34:52;;;;;;;9.18;2.53;;;;;;;;;;5056805;28;20113;-76
2021/03/29 12:37:19;;;;;;;6.50;2.63;;;;;;;;;;5056842;28;20036;-76
2021/03/29 12:39:50;;;;;;;7.65;3.63;;;;;;;;;;5057029;28;20021;-76
2021/03/29 12:42:21;;;;;;;9.67;3.70;;;;;;;;;;5056787;28;20044;-76
2021/03/29 12:44:48;;;;;;;8.55;3.13;;;;;;;;;;5056620;28;20289;-76
2021/03/29 12:47:16;;;;;;;7.80;5.03;;;;;;;;;;5056912;28;20029;-76
2021/03/29 12:49:43;;;;;;;7.30;3.05;;;;;;;;;;5056443;28;20021;-76
2021/03/29 12:52:09;;;;;;;11.23;3.05;;;;;;;;;;5059739;28;20047;-77
2021/03/29 12:54:36;;;;;;;12.60;3.72;;;;;;;;;;5059381;28;20043;-77
2021/03/29 12:57:03;;;;;;;11.20;3.55;;;;;;;;;;5059553;28;20032;-77
2021/03/29 12:59:30;;;;;;;7.60;3.30;;;;;;;;;;5054399;28;20021;-76
2021/03/29 13:01:57;;;;;;;7.72;3.75;;;;;;;;;;5040820;28;20108;-76
2021/03/29 13:04:27;;;;;;;11.63;5.55;;;;;;;;;;5040714;28;20025;-77
2021/03/29 13:07:10;;;;;;;12.20;5.45;;;;;;;;;;5040622;28;20021;-77
2021/03/29 13:09:44;;;;;;;12.00;3.72;;;;;;;;;;5055567;28;20041;-76
2021/03/29 13:12:11;;;;;;;6.72;3.28;;;;;;;;;;5040531;28;20025;-76
2021/03/29 13:14:55;;;;;;;7.18;3.80;;;;;;;;;;5040495;28;20030;-77
2021/03/29 13:17:21;;;;;;;10.55;3.90;;;;;;;;;;5056274;28;20350;-76
2021/03/29 13:19:47;;;;;;;6.93;3.20;;;;;;;;;;5040473;28;20034;-76
2021/03/29 13:22:14;;;;;;;10.10;3.63;;;;;;;;;;5040327;28;20071;-76
2021/03/29 13:24:40;;;;;;;10.10;3.60;;;;;;;;;;5040285;28;20030;-77
2021/03/29 13:27:07;;;;;;;16.48;4.78;;;;;;;;;;5040132;28;20063;-76
2021/03/29 13:29:33;;;;;;;14.25;3.42;;;;;;;;;;5040481;28;20325;-76
2021/03/29 13:31:59;;;;;;;9.23;3.95;;;;;;;;;;5055530;28;20440;-77
2021/03/29 13:34:25;;;;;;;6.95;3.13;;;;;;;;;;5040129;28;20025;-77
2021/03/29 13:36:51;;;;;;;9.27;3.00;;;;;;;;;;5040071;28;20030;-76
2021/03/29 13:39:17;;;;;;;12.65;4.50;;;;;;;;;;5039715;28;20416;-76
2021/03/29 13:41:43;;;;;;;6.03;2.35;;;;;;;;;;5039913;28;20404;-76
2021/03/29 13:44:11;;;;;;;4.72;2.53;;;;;;;;;;5039617;28;20061;-76
2021/03/29 13:46:37;;;;;;;5.50;3.10;;;;;;;;;;5039663;28;20032;-76
2021/03/29 13:49:04;;;;;;;8.40;4.10;;;;;;;;;;5039867;28;20076;-76
2021/03/29 13:51:30;;;;;;;11.10;3.50;;;;;;;;;;5039936;28;20030;-77
2021/03/29 13:54:06;;;;;;;6.72;3.25;;;;;;;;;;5039863;28;20029;-77
2021/03/29 13:56:32;;;;;;;6.50;3.30;;;;;;;;;;5039989;28;20080;-77
2021/03/29 13:58:58;;;;;;;6.28;3.22;;;;;;;;;;5055438;28;20025;-77
2021/03/29 14:01:25;;;;;;;9.48;4.63;;;;;;;;;;5054706;28;20041;-76
2021/03/29 14:03:51;;;;;;;8.05;3.70;;;;;;;;;;5055019;28;20041;-76
2021/03/29 14:06:17;;;;;;;19.08;9.80;;;;;;;;;;5039671;28;20025;-76
2021/03/29 14:08:43;;;;;;;12.93;3.85;;;;;;;;;;5055067;28;20021;-77
2021/03/29 14:11:09;;;;;;;9.45;3.20;;;;;;;;;;5039663;28;20356;-76
2021/03/29 14:13:35;;;;;;;13.80;6.55;;;;;;;;;;5039683;28;20040;-76
2021/03/29 14:16:01;;;;;;;18.73;11.05;;;;;;;;;;5039280;28;20033;-76
2021/03/29 14:18:27;;;;;;;9.05;3.63;;;;;;;;;;5037928;28;20033;-77
2021/03/29 14:20:54;;;;;;;9.55;2.28;;;;;;;;;;5054639;28;20289;-77
2021/03/29 14:23:20;;;;;;;8.20;2.50;;;;;;;;;;5039434;28;20021;-76
2021/03/29 14:25:46;;;;;;;14.85;2.72;;;;;;;;;;5054662;28;20107;-77
2021/03/29 14:28:12;;;;;;;7.05;2.78;;;;;;;;;;5039100;28;20384;-76
2021/03/29 14:30:38;;;;;;;19.25;8.35;;;;;;;;;;5054768;28;20025;-76
2021/03/29 14:33:05;;;;;;;12.18;3.53;;;;;;;;;;5039115;28;20064;-76
2021/03/29 14:38:25;;;;;;;11.77;6.40;;;;;;;;;;5046585;28;20423;-76
2021/03/29 14:45:53;;;;;;;7.35;3.20;;;;;;;;;;5078708;28;20040;-76